LFSN

Nancy-Essey Airport

Airport
ICAO code
LFSN
IATA Code
ENC
Summary
ICAO Region
EUR
ICAO Territory
Location

, Lorraine

Serving
Nancy
Elevation
751 ft
Coordinates
48° 41' 31" N , 6° 13' 50" E
Metar
Observation
LFSN 030230Z AUTO 06008KT 9999 OVC009 03/01 Q1017
Station
Nancy / Essey
Date/Time
2022-12-03 02:30:00
Wind direction
60°
Wind speed
08 kts
Lowest cloud amount
overcast
Temperature
3°C
Dew point
1°C
Humidity
86%
QNH
1017 hPa
Weather condition
n/a

Runways

Designator Length Width Surface Rops
3/21 1400 40 ASP Yes/Yes

Airport map

Aerial View

SKYbrary Partners:

Safety knowledge contributed by: